< < Back
Terminal Aerodrome Forecast


Current Version              Previous Versions:   1  2  3  4  5  6  7  8  9  

Terminal Aerodrome Forecast

321
FTUS42 KFFC 292300
TAFPDK
TAF
KPDK 292320Z 3000/3024 VRB03KT P6SM SCT080 SCT250
     FM301600 18007KT P6SM SCT035 BKN050 PROB30 3017/3023 6SM TSRA
      BKN045CB=



Latest METAR

344
SAUS70 KWBC 301600 RRK
MTRPDK
METAR KPDK 301553Z 15003KT 10SM BKN070 BKN085 28/21 A3018 RMK AO2 SLP201
T02830206


USA.gov is the U.S. government's official web portal to all federal, state and local government web resources and services.